createdAt,value
2022-09-04T00:05:12.266Z,18.46
2022-09-04T00:10:24.398Z,18.43
2022-09-04T00:15:36.739Z,18.4
2022-09-04T00:20:49.280Z,18.31
2022-09-04T00:26:02.944Z,18.26
2022-09-04T00:31:15.375Z,18.18
2022-09-04T00:36:27.726Z,18.08
2022-09-04T00:41:40.394Z,18.04
2022-09-04T00:46:52.622Z,17.96
2022-09-04T00:52:05.015Z,17.92
2022-09-04T00:57:17.379Z,17.87
2022-09-04T01:02:29.797Z,17.79
2022-09-04T01:07:42.033Z,17.74
2022-09-04T01:12:54.447Z,17.73
2022-09-04T01:18:06.583Z,17.66
2022-09-04T01:23:19.200Z,17.64
2022-09-04T01:28:31.548Z,17.61
2022-09-04T01:33:44.054Z,17.51
2022-09-04T01:38:56.376Z,17.46
2022-09-04T01:44:08.905Z,17.42
2022-09-04T01:49:21.237Z,17.38
2022-09-04T01:54:34.868Z,17.34
2022-09-04T01:59:49.722Z,17.28
2022-09-04T02:04:59.546Z,17.25
2022-09-04T02:10:11.676Z,17.18
2022-09-04T02:15:23.954Z,17.16
2022-09-04T02:20:36.322Z,17.1
2022-09-04T02:25:48.872Z,17.04
2022-09-04T02:31:01.237Z,17.03
2022-09-04T02:36:13.447Z,16.98
2022-09-04T02:41:25.718Z,16.93
2022-09-04T02:46:41.240Z,16.92
2022-09-04T02:51:50.356Z,16.89
2022-09-04T02:57:02.642Z,16.84
2022-09-04T03:02:15.046Z,16.83
2022-09-04T03:07:27.325Z,16.77
2022-09-04T03:12:39.737Z,16.76
2022-09-04T03:17:52.238Z,16.77
2022-09-04T03:23:04.640Z,16.78
2022-09-04T03:28:17.077Z,16.68
2022-09-04T03:33:29.520Z,16.64
2022-09-04T03:38:41.725Z,16.64
2022-09-04T03:43:54.388Z,16.64
2022-09-04T03:49:06.726Z,16.65
2022-09-04T03:54:19.456Z,16.66
2022-09-04T03:59:31.777Z,16.63
2022-09-04T04:04:44.320Z,16.57
2022-09-04T04:09:56.526Z,16.56
2022-09-04T04:15:09.039Z,16.52
2022-09-04T04:20:21.383Z,16.51
2022-09-04T04:25:33.805Z,16.49
2022-09-04T04:30:46.036Z,16.46
2022-09-04T04:35:58.535Z,16.41
2022-09-04T04:41:10.776Z,16.33
2022-09-04T04:46:23.250Z,16.27
2022-09-04T04:51:35.591Z,16.23
2022-09-04T04:56:48.030Z,16.2
2022-09-04T05:02:00.456Z,16.15
2022-09-04T05:07:12.565Z,16.11
2022-09-04T05:12:25.088Z,16.09
2022-09-04T05:17:37.651Z,16.11
2022-09-04T05:22:50.250Z,16.15
2022-09-04T05:28:02.366Z,16.16
2022-09-04T05:33:14.802Z,16.17
2022-09-04T05:38:27.188Z,16.22
2022-09-04T05:43:39.762Z,16.25
2022-09-04T05:48:52.049Z,16.32
2022-09-04T05:54:04.357Z,16.37
2022-09-04T05:59:17.026Z,16.46
2022-09-04T06:04:29.341Z,16.52
2022-09-04T06:09:41.711Z,16.64
2022-09-04T06:14:53.812Z,16.72
2022-09-04T06:20:06.115Z,16.78
2022-09-04T06:25:18.751Z,17.15
2022-09-04T06:30:31.149Z,17.34
2022-09-04T06:35:43.506Z,17.37
2022-09-04T06:40:55.807Z,17.36
2022-09-04T06:46:08.272Z,17.39
2022-09-04T06:51:20.482Z,17.28
2022-09-04T06:56:32.840Z,17.3
2022-09-04T07:01:45.424Z,17.34
2022-09-04T07:06:57.755Z,17.43
2022-09-04T07:12:10.287Z,17.55
2022-09-04T07:17:22.734Z,17.82
2022-09-04T07:22:35.332Z,18.07
2022-09-04T07:27:47.659Z,18.22
2022-09-04T07:33:00.296Z,18.33
2022-09-04T07:38:12.206Z,18.45
2022-09-04T07:43:24.720Z,18.52
2022-09-04T07:48:37.142Z,18.65
2022-09-04T07:53:49.681Z,18.78
2022-09-04T07:59:01.929Z,18.9
2022-09-04T08:04:14.317Z,19
2022-09-04T08:09:26.695Z,19.1
2022-09-04T08:14:40.198Z,19.21
2022-09-04T08:19:52.640Z,19.37
2022-09-04T08:25:05.078Z,19.53
2022-09-04T08:30:17.222Z,19.7
2022-09-04T08:35:29.713Z,19.88
2022-09-04T08:40:42.021Z,20.08
2022-09-04T08:45:54.637Z,20.34
2022-09-04T08:51:06.956Z,20.5
2022-09-04T08:56:19.415Z,20.61
2022-09-04T09:01:31.992Z,20.61
2022-09-04T09:06:44.451Z,20.74
2022-09-04T09:11:56.788Z,20.89
2022-09-04T09:17:09.107Z,21.05
2022-09-04T09:22:21.450Z,21.17
2022-09-04T09:27:33.963Z,21.31
2022-09-04T09:32:46.267Z,21.37
2022-09-04T09:38:02.427Z,21.55
2022-09-04T09:43:10.882Z,21.79
2022-09-04T09:48:23.472Z,21.96
2022-09-04T09:53:35.798Z,22.21
2022-09-04T09:58:48.327Z,22.45
2022-09-04T10:04:00.639Z,22.63
2022-09-04T10:09:12.947Z,22.86
2022-09-04T10:14:25.433Z,22.99
2022-09-04T10:19:39.275Z,23.18
2022-09-04T10:24:50.121Z,23.51
2022-09-04T10:30:02.321Z,23.75
2022-09-04T10:35:15.386Z,23.88
2022-09-04T10:40:28.008Z,24.1
2022-09-04T10:45:40.260Z,24.37
2022-09-04T10:50:52.663Z,24.56
2022-09-04T10:56:04.916Z,24.76
2022-09-04T11:01:17.594Z,24.9
2022-09-04T11:06:29.128Z,25.14
2022-09-04T11:11:41.519Z,25.51
2022-09-04T11:16:57.233Z,25.68
2022-09-04T11:22:06.128Z,25.77
2022-09-04T11:27:18.531Z,26.04
2022-09-04T11:32:31.065Z,26.36
2022-09-04T11:37:43.576Z,26.75
2022-09-04T11:42:56.131Z,26.97
2022-09-04T11:48:08.332Z,27.06
2022-09-04T11:53:20.703Z,27.21
2022-09-04T11:58:33.087Z,27.49
2022-09-04T12:03:45.266Z,27.31
2022-09-04T12:08:57.421Z,27.29
2022-09-04T12:14:09.748Z,27.46
2022-09-04T12:19:22.105Z,27.63
2022-09-04T12:24:34.594Z,27.88
2022-09-04T12:29:46.749Z,28.09
2022-09-04T12:34:59.073Z,28.35
2022-09-04T12:40:11.604Z,28.73
2022-09-04T12:45:24.240Z,29.16
2022-09-04T12:50:36.542Z,29.35
2022-09-04T12:55:48.851Z,29.4
2022-09-04T13:01:01.199Z,29.3
2022-09-04T13:06:13.417Z,29.25
2022-09-04T13:11:25.717Z,29.17
2022-09-04T13:16:37.892Z,28.73
2022-09-04T13:21:50.239Z,29.08
2022-09-04T13:27:02.386Z,29.17
2022-09-04T13:32:14.811Z,29.26
2022-09-04T13:37:27.388Z,29.67
2022-09-04T13:42:39.869Z,29.92
2022-09-04T13:47:52.082Z,29.97
2022-09-04T13:53:04.595Z,30.29
2022-09-04T13:58:32.475Z,30.7
2022-09-04T14:03:44.961Z,30.99
2022-09-04T14:09:04.534Z,31.41
2022-09-04T14:14:09.760Z,31.41
2022-09-04T14:19:22.287Z,31.43
2022-09-04T14:24:37.771Z,31.7
2022-09-04T14:29:48.277Z,31.69
2022-09-04T14:35:00.658Z,31.91
2022-09-04T14:40:13.042Z,31.94
2022-09-04T14:45:25.262Z,31.95
2022-09-04T14:50:37.367Z,31.5
2022-09-04T14:55:49.909Z,31.58
2022-09-04T15:01:02.187Z,31.85
2022-09-04T15:06:14.414Z,31.75
2022-09-04T15:11:30.912Z,31.79
2022-09-04T15:16:39.188Z,31.88
2022-09-04T15:21:52.020Z,31.52
2022-09-04T15:27:04.468Z,31.73
2022-09-04T15:32:16.780Z,31.71
2022-09-04T15:37:29.086Z,31.73
2022-09-04T15:42:41.535Z,31.84
2022-09-04T15:47:53.829Z,32.06
2022-09-04T15:53:06.619Z,32.22
2022-09-04T15:58:19.146Z,32.17
2022-09-04T16:03:31.373Z,32.26
2022-09-04T16:08:44.262Z,32.39
2022-09-04T16:13:57.016Z,32.68
2022-09-04T16:19:09.004Z,32.61
2022-09-04T16:24:21.317Z,32.36
2022-09-04T16:29:33.537Z,32.23
2022-09-04T16:34:45.895Z,32.27
2022-09-04T16:39:58.180Z,32.15
2022-09-04T16:45:10.379Z,32.05
2022-09-04T16:50:22.826Z,31.8
2022-09-04T16:55:34.847Z,30.97
2022-09-04T17:00:46.864Z,30.07
2022-09-04T17:05:59.101Z,29.3
2022-09-04T17:11:11.126Z,28.81
2022-09-04T17:16:24.611Z,28.41
2022-09-04T17:23:59.451Z,28.24
2022-09-04T17:29:06.258Z,27.88
2022-09-04T17:32:02.180Z,27.59
2022-09-04T17:40:45.801Z,27.35
2022-09-04T17:42:26.766Z,27.06
2022-09-04T17:47:38.904Z,26.71
2022-09-04T17:52:51.146Z,26.47
2022-09-04T17:58:03.377Z,26.19
2022-09-04T18:03:15.570Z,25.92
2022-09-04T18:08:28.099Z,25.63
2022-09-04T18:13:40.437Z,25.39
2022-09-04T18:18:52.750Z,25.27
2022-09-04T18:24:05.003Z,25.16
2022-09-04T18:29:29.103Z,25.03
2022-09-04T18:37:14.450Z,24.86
2022-09-04T18:39:43.201Z,24.75
2022-09-04T18:50:27.063Z,24.61
2022-09-04T18:50:42.462Z,24.48
2022-09-04T18:55:20.328Z,24.29
2022-09-04T19:00:32.531Z,24.12
2022-09-04T19:05:45.522Z,23.98
2022-09-04T19:10:57.203Z,23.83
2022-09-04T19:16:09.704Z,23.69
2022-09-04T19:21:21.816Z,23.6
2022-09-04T19:26:34.267Z,23.51
2022-09-04T19:31:46.548Z,23.34
2022-09-04T19:37:00.447Z,23.15
2022-09-04T19:46:10.534Z,22.97
2022-09-04T19:47:26.944Z,22.83
2022-09-04T19:53:23.675Z,22.57
2022-09-04T19:57:48.307Z,22.43
2022-09-04T20:03:00.639Z,22.35
2022-09-04T20:08:12.556Z,22.22
2022-09-04T20:13:25.102Z,22.18
2022-09-04T20:18:39.524Z,22.13
2022-09-04T20:23:49.732Z,22.07
2022-09-04T20:29:02.007Z,22.06
2022-09-04T20:34:14.272Z,22.04
2022-09-04T20:39:26.528Z,21.96
2022-09-04T20:44:42.742Z,21.95
2022-09-04T20:52:47.455Z,21.87
2022-09-04T20:55:03.339Z,21.73
2022-09-04T21:03:15.522Z,21.66
2022-09-04T21:05:28.099Z,21.61
2022-09-04T21:10:40.358Z,21.51
2022-09-04T21:15:52.844Z,21.4
2022-09-04T21:21:05.149Z,21.34
2022-09-04T21:26:17.509Z,21.28
2022-09-04T21:31:30.009Z,21.22
2022-09-04T21:36:42.146Z,21.11
2022-09-04T21:41:54.682Z,21.03
2022-09-04T21:47:06.891Z,20.91
2022-09-04T21:52:19.232Z,20.81
2022-09-04T22:01:02.068Z,20.8
2022-09-04T22:02:54.252Z,20.77
2022-09-04T22:09:29.020Z,20.72
2022-09-04T22:13:36.006Z,20.63
2022-09-04T22:18:20.785Z,20.56
2022-09-04T22:23:33.165Z,20.46
2022-09-04T22:28:45.377Z,20.45
2022-09-04T22:34:14.762Z,20.44
2022-09-04T22:39:10.047Z,20.4
2022-09-04T22:44:22.254Z,20.43
2022-09-04T22:49:34.612Z,20.42
2022-09-04T22:54:46.901Z,20.37
2022-09-04T22:59:59.313Z,20.32
2022-09-04T23:05:12.076Z,20.24
2022-09-04T23:13:55.934Z,20.18
2022-09-04T23:15:36.791Z,20.03
2022-09-04T23:24:02.590Z,20.03
2022-09-04T23:26:40.226Z,20.01
2022-09-04T23:31:16.463Z,19.96
2022-09-04T23:36:28.516Z,19.93
2022-09-04T23:41:44.674Z,19.91
2022-09-04T23:46:51.176Z,19.91
2022-09-04T23:52:03.400Z,19.78
2022-09-04T23:57:21.194Z,19.7
